sensor_id;sensor_type;location;lat;lon;timestamp;P1;durP1;ratioP1;P2;durP2;ratioP2
35969;SDS011;22448;51.298;6.430;2022-09-13T00:02:15;5.72;;;4.63;;
35969;SDS011;22448;51.298;6.430;2022-09-13T00:04:42;5.57;;;4.53;;
35969;SDS011;22448;51.298;6.430;2022-09-13T00:07:09;6.13;;;4.47;;
35969;SDS011;22448;51.298;6.430;2022-09-13T00:09:36;6.05;;;4.65;;
35969;SDS011;22448;51.298;6.430;2022-09-13T00:12:03;9.25;;;4.40;;
35969;SDS011;22448;51.298;6.430;2022-09-13T00:14:30;7.15;;;4.60;;
35969;SDS011;22448;51.298;6.430;2022-09-13T00:16:58;8.50;;;3.97;;
35969;SDS011;22448;51.298;6.430;2022-09-13T00:19:25;7.05;;;4.47;;
35969;SDS011;22448;51.298;6.430;2022-09-13T00:21:51;13.93;;;4.85;;
35969;SDS011;22448;51.298;6.430;2022-09-13T00:24:18;7.53;;;3.55;;
35969;SDS011;22448;51.298;6.430;2022-09-13T00:26:45;5.05;;;3.97;;
35969;SDS011;22448;51.298;6.430;2022-09-13T00:29:12;6.47;;;4.18;;
35969;SDS011;22448;51.298;6.430;2022-09-13T00:31:39;8.27;;;4.13;;
35969;SDS011;22448;51.298;6.430;2022-09-13T00:34:06;5.80;;;4.22;;
35969;SDS011;22448;51.298;6.430;2022-09-13T00:36:33;5.53;;;4.10;;
35969;SDS011;22448;51.298;6.430;2022-09-13T00:39:00;10.05;;;3.60;;
35969;SDS011;22448;51.298;6.430;2022-09-13T00:41:27;7.32;;;4.15;;
35969;SDS011;22448;51.298;6.430;2022-09-13T00:43:56;6.60;;;4.07;;
35969;SDS011;22448;51.298;6.430;2022-09-13T00:46:31;5.05;;;4.20;;
35969;SDS011;22448;51.298;6.430;2022-09-13T00:49:15;5.57;;;4.38;;
35969;SDS011;22448;51.298;6.430;2022-09-13T00:51:55;5.43;;;4.32;;
35969;SDS011;22448;51.298;6.430;2022-09-13T00:54:26;7.47;;;4.00;;
35969;SDS011;22448;51.298;6.430;2022-09-13T00:56:58;7.85;;;4.30;;
35969;SDS011;22448;51.298;6.430;2022-09-13T00:59:30;6.35;;;4.60;;
35969;SDS011;22448;51.298;6.430;2022-09-13T01:02:07;7.00;;;4.22;;
35969;SDS011;22448;51.298;6.430;2022-09-13T01:04:34;8.60;;;4.38;;
35969;SDS011;22448;51.298;6.430;2022-09-13T01:07:03;5.05;;;4.13;;
35969;SDS011;22448;51.298;6.430;2022-09-13T01:09:37;7.00;;;3.97;;
35969;SDS011;22448;51.298;6.430;2022-09-13T01:12:08;5.22;;;3.90;;
35969;SDS011;22448;51.298;6.430;2022-09-13T01:14:44;5.95;;;4.20;;
35969;SDS011;22448;51.298;6.430;2022-09-13T01:17:13;7.80;;;3.75;;
35969;SDS011;22448;51.298;6.430;2022-09-13T01:19:39;5.40;;;3.50;;
35969;SDS011;22448;51.298;6.430;2022-09-13T01:30:23;9.20;;;3.83;;
35969;SDS011;22448;51.298;6.430;2022-09-13T01:46:25;9.52;;;3.83;;
35969;SDS011;22448;51.298;6.430;2022-09-13T01:51:44;8.32;;;3.83;;
35969;SDS011;22448;51.298;6.430;2022-09-13T01:54:19;5.75;;;3.85;;
35969;SDS011;22448;51.298;6.430;2022-09-13T01:57:02;6.03;;;3.75;;
35969;SDS011;22448;51.298;6.430;2022-09-13T01:59:40;11.38;;;3.65;;
35969;SDS011;22448;51.298;6.430;2022-09-13T02:02:21;6.97;;;3.80;;
35969;SDS011;22448;51.298;6.430;2022-09-13T02:07:40;9.30;;;3.83;;
35969;SDS011;22448;51.298;6.430;2022-09-13T02:10:13;8.45;;;4.05;;
35969;SDS011;22448;51.298;6.430;2022-09-13T02:12:44;7.05;;;3.40;;
35969;SDS011;22448;51.298;6.430;2022-09-13T02:15:15;4.65;;;3.42;;
35969;SDS011;22448;51.298;6.430;2022-09-13T02:17:45;8.38;;;3.63;;
35969;SDS011;22448;51.298;6.430;2022-09-13T02:20:29;6.50;;;3.35;;
35969;SDS011;22448;51.298;6.430;2022-09-13T02:23:00;5.13;;;3.42;;
35969;SDS011;22448;51.298;6.430;2022-09-13T02:25:31;6.50;;;3.53;;
35969;SDS011;22448;51.298;6.430;2022-09-13T02:28:01;4.90;;;3.30;;
35969;SDS011;22448;51.298;6.430;2022-09-13T02:30:33;5.55;;;3.80;;
35969;SDS011;22448;51.298;6.430;2022-09-13T02:33:04;6.85;;;3.20;;
35969;SDS011;22448;51.298;6.430;2022-09-13T02:35:37;5.05;;;3.38;;
35969;SDS011;22448;51.298;6.430;2022-09-13T02:38:28;7.78;;;3.00;;
35969;SDS011;22448;51.298;6.430;2022-09-13T02:41:06;7.78;;;3.50;;
35969;SDS011;22448;51.298;6.430;2022-09-13T02:43:41;6.57;;;3.33;;
35969;SDS011;22448;51.298;6.430;2022-09-13T02:46:32;7.33;;;3.40;;
35969;SDS011;22448;51.298;6.430;2022-09-13T02:49:24;6.53;;;3.70;;
35969;SDS011;22448;51.298;6.430;2022-09-13T02:54:39;6.43;;;3.55;;
35969;SDS011;22448;51.298;6.430;2022-09-13T02:57:19;7.00;;;3.45;;
35969;SDS011;22448;51.298;6.430;2022-09-13T02:59:56;10.98;;;3.95;;
35969;SDS011;22448;51.298;6.430;2022-09-13T03:02:25;6.50;;;3.63;;
35969;SDS011;22448;51.298;6.430;2022-09-13T03:04:57;6.40;;;4.10;;
35969;SDS011;22448;51.298;6.430;2022-09-13T03:07:25;7.60;;;3.80;;
35969;SDS011;22448;51.298;6.430;2022-09-13T03:10:03;7.30;;;4.10;;
35969;SDS011;22448;51.298;6.430;2022-09-13T03:35:03;6.70;;;4.15;;
35969;SDS011;22448;51.298;6.430;2022-09-13T03:40:34;7.45;;;3.97;;
35969;SDS011;22448;51.298;6.430;2022-09-13T03:45:48;4.97;;;3.03;;
35969;SDS011;22448;51.298;6.430;2022-09-13T03:48:21;7.00;;;4.13;;
35969;SDS011;22448;51.298;6.430;2022-09-13T03:50:49;5.68;;;4.00;;
35969;SDS011;22448;51.298;6.430;2022-09-13T03:53:21;6.40;;;3.50;;
35969;SDS011;22448;51.298;6.430;2022-09-13T03:55:50;7.55;;;3.90;;
35969;SDS011;22448;51.298;6.430;2022-09-13T03:58:18;6.68;;;3.60;;
35969;SDS011;22448;51.298;6.430;2022-09-13T04:00:46;7.28;;;4.30;;
35969;SDS011;22448;51.298;6.430;2022-09-13T04:03:14;6.90;;;4.15;;
35969;SDS011;22448;51.298;6.430;2022-09-13T04:05:41;5.68;;;3.95;;
35969;SDS011;22448;51.298;6.430;2022-09-13T04:08:08;9.68;;;4.20;;
35969;SDS011;22448;51.298;6.430;2022-09-13T04:10:35;7.85;;;3.83;;
35969;SDS011;22448;51.298;6.430;2022-09-13T04:13:03;9.57;;;4.00;;
35969;SDS011;22448;51.298;6.430;2022-09-13T04:15:30;7.53;;;4.22;;
35969;SDS011;22448;51.298;6.430;2022-09-13T04:17:58;7.55;;;4.13;;
35969;SDS011;22448;51.298;6.430;2022-09-13T04:20:26;6.45;;;4.15;;
35969;SDS011;22448;51.298;6.430;2022-09-13T04:22:55;9.93;;;4.38;;
35969;SDS011;22448;51.298;6.430;2022-09-13T04:25:23;7.18;;;4.15;;
35969;SDS011;22448;51.298;6.430;2022-09-13T04:27:53;8.25;;;4.07;;
35969;SDS011;22448;51.298;6.430;2022-09-13T04:30:21;4.15;;;3.75;;
35969;SDS011;22448;51.298;6.430;2022-09-13T04:32:48;6.10;;;4.00;;
35969;SDS011;22448;51.298;6.430;2022-09-13T04:35:16;7.18;;;4.35;;
35969;SDS011;22448;51.298;6.430;2022-09-13T04:37:43;7.32;;;4.75;;
35969;SDS011;22448;51.298;6.430;2022-09-13T04:40:10;9.48;;;5.40;;
35969;SDS011;22448;51.298;6.430;2022-09-13T04:42:38;12.50;;;4.40;;
35969;SDS011;22448;51.298;6.430;2022-09-13T04:45:05;9.20;;;4.53;;
35969;SDS011;22448;51.298;6.430;2022-09-13T04:47:33;8.85;;;4.93;;
35969;SDS011;22448;51.298;6.430;2022-09-13T04:50:00;9.82;;;4.47;;
35969;SDS011;22448;51.298;6.430;2022-09-13T04:52:27;10.27;;;4.25;;
35969;SDS011;22448;51.298;6.430;2022-09-13T04:54:54;4.65;;;3.75;;
35969;SDS011;22448;51.298;6.430;2022-09-13T04:57:21;5.85;;;4.07;;
35969;SDS011;22448;51.298;6.430;2022-09-13T04:59:48;5.07;;;3.60;;
35969;SDS011;22448;51.298;6.430;2022-09-13T05:02:15;6.55;;;4.13;;
35969;SDS011;22448;51.298;6.430;2022-09-13T05:04:42;8.52;;;4.22;;
35969;SDS011;22448;51.298;6.430;2022-09-13T05:07:09;7.60;;;3.92;;
35969;SDS011;22448;51.298;6.430;2022-09-13T05:09:36;9.70;;;3.78;;
35969;SDS011;22448;51.298;6.430;2022-09-13T05:12:03;7.80;;;4.07;;
35969;SDS011;22448;51.298;6.430;2022-09-13T05:14:30;5.75;;;3.47;;
35969;SDS011;22448;51.298;6.430;2022-09-13T05:16:57;4.75;;;3.97;;
35969;SDS011;22448;51.298;6.430;2022-09-13T05:19:24;6.93;;;3.80;;
35969;SDS011;22448;51.298;6.430;2022-09-13T05:21:51;6.22;;;3.65;;
35969;SDS011;22448;51.298;6.430;2022-09-13T05:24:18;7.47;;;4.07;;
35969;SDS011;22448;51.298;6.430;2022-09-13T05:26:45;8.93;;;3.92;;
35969;SDS011;22448;51.298;6.430;2022-09-13T05:29:12;9.25;;;4.18;;
35969;SDS011;22448;51.298;6.430;2022-09-13T05:31:39;9.63;;;3.75;;
35969;SDS011;22448;51.298;6.430;2022-09-13T05:34:12;6.60;;;4.13;;
35969;SDS011;22448;51.298;6.430;2022-09-13T05:39:11;9.88;;;3.72;;
35969;SDS011;22448;51.298;6.430;2022-09-13T05:42:00;8.60;;;2.70;;
35969;SDS011;22448;51.298;6.430;2022-09-13T05:44:27;8.90;;;4.20;;
35969;SDS011;22448;51.298;6.430;2022-09-13T05:46:54;6.57;;;3.85;;
35969;SDS011;22448;51.298;6.430;2022-09-13T05:49:21;5.68;;;3.20;;
35969;SDS011;22448;51.298;6.430;2022-09-13T05:51:48;3.65;;;3.25;;
35969;SDS011;22448;51.298;6.430;2022-09-13T05:54:15;6.55;;;3.30;;
35969;SDS011;22448;51.298;6.430;2022-09-13T05:56:42;6.03;;;3.53;;
35969;SDS011;22448;51.298;6.430;2022-09-13T05:59:12;4.47;;;3.50;;
35969;SDS011;22448;51.298;6.430;2022-09-13T06:01:42;7.28;;;3.10;;
35969;SDS011;22448;51.298;6.430;2022-09-13T06:04:10;14.77;;;3.90;;
35969;SDS011;22448;51.298;6.430;2022-09-13T06:06:37;7.90;;;3.72;;
35969;SDS011;22448;51.298;6.430;2022-09-13T06:09:05;8.32;;;3.63;;
35969;SDS011;22448;51.298;6.430;2022-09-13T06:11:33;7.03;;;3.42;;
35969;SDS011;22448;51.298;6.430;2022-09-13T06:14:00;9.45;;;3.58;;
35969;SDS011;22448;51.298;6.430;2022-09-13T06:16:27;5.93;;;2.90;;
35969;SDS011;22448;51.298;6.430;2022-09-13T06:18:54;8.25;;;3.10;;
35969;SDS011;22448;51.298;6.430;2022-09-13T06:21:21;5.55;;;3.55;;
35969;SDS011;22448;51.298;6.430;2022-09-13T06:23:54;8.18;;;3.58;;
35969;SDS011;22448;51.298;6.430;2022-09-13T06:26:22;9.80;;;3.40;;
35969;SDS011;22448;51.298;6.430;2022-09-13T06:28:52;6.35;;;3.42;;
35969;SDS011;22448;51.298;6.430;2022-09-13T06:31:21;6.03;;;3.50;;
35969;SDS011;22448;51.298;6.430;2022-09-13T06:33:54;7.65;;;3.47;;
35969;SDS011;22448;51.298;6.430;2022-09-13T06:36:22;5.72;;;3.75;;
35969;SDS011;22448;51.298;6.430;2022-09-13T06:38:49;11.93;;;3.65;;
35969;SDS011;22448;51.298;6.430;2022-09-13T06:41:17;6.43;;;4.35;;
35969;SDS011;22448;51.298;6.430;2022-09-13T06:43:50;6.90;;;3.88;;
35969;SDS011;22448;51.298;6.430;2022-09-13T06:46:19;5.47;;;2.65;;
35969;SDS011;22448;51.298;6.430;2022-09-13T06:48:50;7.38;;;3.22;;
35969;SDS011;22448;51.298;6.430;2022-09-13T06:51:19;8.05;;;3.88;;
35969;SDS011;22448;51.298;6.430;2022-09-13T06:53:49;8.35;;;3.80;;
35969;SDS011;22448;51.298;6.430;2022-09-13T06:56:18;8.02;;;3.10;;
35969;SDS011;22448;51.298;6.430;2022-09-13T06:58:47;12.15;;;4.05;;
35969;SDS011;22448;51.298;6.430;2022-09-13T07:01:17;7.78;;;3.92;;
35969;SDS011;22448;51.298;6.430;2022-09-13T07:03:52;10.02;;;3.95;;
35969;SDS011;22448;51.298;6.430;2022-09-13T07:06:25;7.80;;;3.53;;
35969;SDS011;22448;51.298;6.430;2022-09-13T07:08:54;5.55;;;3.10;;
35969;SDS011;22448;51.298;6.430;2022-09-13T07:11:22;7.60;;;3.28;;
35969;SDS011;22448;51.298;6.430;2022-09-13T07:13:52;9.00;;;4.05;;
35969;SDS011;22448;51.298;6.430;2022-09-13T07:16:21;7.28;;;4.20;;
35969;SDS011;22448;51.298;6.430;2022-09-13T07:18:51;10.77;;;3.33;;
35969;SDS011;22448;51.298;6.430;2022-09-13T07:21:20;7.32;;;3.22;;
35969;SDS011;22448;51.298;6.430;2022-09-13T07:23:49;8.93;;;3.72;;
35969;SDS011;22448;51.298;6.430;2022-09-13T07:26:17;7.22;;;3.78;;
35969;SDS011;22448;51.298;6.430;2022-09-13T07:28:45;6.60;;;3.55;;
35969;SDS011;22448;51.298;6.430;2022-09-13T07:31:20;6.85;;;3.97;;
35969;SDS011;22448;51.298;6.430;2022-09-13T07:34:12;7.07;;;4.30;;
35969;SDS011;22448;51.298;6.430;2022-09-13T07:36:41;9.60;;;3.92;;
35969;SDS011;22448;51.298;6.430;2022-09-13T07:39:11;12.13;;;4.20;;
35969;SDS011;22448;51.298;6.430;2022-09-13T07:41:44;7.03;;;3.40;;
35969;SDS011;22448;51.298;6.430;2022-09-13T07:44:14;5.55;;;3.53;;
35969;SDS011;22448;51.298;6.430;2022-09-13T07:46:41;7.05;;;3.65;;
35969;SDS011;22448;51.298;6.430;2022-09-13T07:49:11;13.30;;;4.10;;
35969;SDS011;22448;51.298;6.430;2022-09-13T07:51:41;11.88;;;3.65;;
35969;SDS011;22448;51.298;6.430;2022-09-13T07:54:10;7.97;;;3.78;;
35969;SDS011;22448;51.298;6.430;2022-09-13T07:56:39;6.75;;;3.80;;
35969;SDS011;22448;51.298;6.430;2022-09-13T07:59:10;8.50;;;4.07;;
35969;SDS011;22448;51.298;6.430;2022-09-13T08:01:40;9.27;;;3.75;;
35969;SDS011;22448;51.298;6.430;2022-09-13T08:04:10;10.23;;;3.80;;
35969;SDS011;22448;51.298;6.430;2022-09-13T08:06:39;6.53;;;3.50;;
35969;SDS011;22448;51.298;6.430;2022-09-13T08:09:07;7.25;;;4.00;;
35969;SDS011;22448;51.298;6.430;2022-09-13T08:11:38;8.27;;;3.38;;
35969;SDS011;22448;51.298;6.430;2022-09-13T08:14:11;6.43;;;3.33;;
35969;SDS011;22448;51.298;6.430;2022-09-13T08:16:40;8.18;;;4.13;;
35969;SDS011;22448;51.298;6.430;2022-09-13T08:19:09;8.68;;;4.38;;
35969;SDS011;22448;51.298;6.430;2022-09-13T08:21:38;10.45;;;4.00;;
35969;SDS011;22448;51.298;6.430;2022-09-13T08:24:07;16.58;;;5.30;;
35969;SDS011;22448;51.298;6.430;2022-09-13T08:26:39;10.05;;;4.90;;
35969;SDS011;22448;51.298;6.430;2022-09-13T08:29:06;11.85;;;4.85;;
35969;SDS011;22448;51.298;6.430;2022-09-13T08:31:33;10.55;;;5.70;;
35969;SDS011;22448;51.298;6.430;2022-09-13T08:34:00;11.82;;;5.38;;
35969;SDS011;22448;51.298;6.430;2022-09-13T08:36:27;8.93;;;5.60;;
35969;SDS011;22448;51.298;6.430;2022-09-13T08:38:56;9.50;;;6.03;;
35969;SDS011;22448;51.298;6.430;2022-09-13T08:44:25;9.23;;;5.95;;
35969;SDS011;22448;51.298;6.430;2022-09-13T08:47:05;10.63;;;6.70;;
35969;SDS011;22448;51.298;6.430;2022-09-13T08:50:20;14.00;;;7.25;;
35969;SDS011;22448;51.298;6.430;2022-09-13T08:53:05;16.65;;;7.32;;
35969;SDS011;22448;51.298;6.430;2022-09-13T08:58:37;18.38;;;9.15;;
35969;SDS011;22448;51.298;6.430;2022-09-13T09:04:29;16.88;;;8.50;;
35969;SDS011;22448;51.298;6.430;2022-09-13T09:07:12;17.00;;;8.88;;
35969;SDS011;22448;51.298;6.430;2022-09-13T09:09:59;19.05;;;8.95;;
35969;SDS011;22448;51.298;6.430;2022-09-13T09:12:36;14.45;;;8.43;;
35969;SDS011;22448;51.298;6.430;2022-09-13T09:20:20;16.00;;;9.27;;
35969;SDS011;22448;51.298;6.430;2022-09-13T09:22:52;14.70;;;8.88;;
35969;SDS011;22448;51.298;6.430;2022-09-13T09:25:21;17.30;;;10.07;;
35969;SDS011;22448;51.298;6.430;2022-09-13T09:27:50;17.75;;;9.38;;
35969;SDS011;22448;51.298;6.430;2022-09-13T09:30:19;17.27;;;9.80;;
35969;SDS011;22448;51.298;6.430;2022-09-13T09:32:59;16.13;;;10.20;;
35969;SDS011;22448;51.298;6.430;2022-09-13T09:35:47;17.77;;;10.75;;
35969;SDS011;22448;51.298;6.430;2022-09-13T09:38:32;18.25;;;10.25;;
35969;SDS011;22448;51.298;6.430;2022-09-13T09:43:55;16.33;;;9.82;;
35969;SDS011;22448;51.298;6.430;2022-09-13T09:46:29;23.80;;;10.23;;
35969;SDS011;22448;51.298;6.430;2022-09-13T09:49:03;13.88;;;10.10;;
35969;SDS011;22448;51.298;6.430;2022-09-13T09:52:01;12.85;;;8.68;;
35969;SDS011;22448;51.298;6.430;2022-09-13T09:54:33;18.27;;;9.55;;
35969;SDS011;22448;51.298;6.430;2022-09-13T09:57:03;16.27;;;9.13;;
35969;SDS011;22448;51.298;6.430;2022-09-13T09:59:32;16.13;;;9.43;;
35969;SDS011;22448;51.298;6.430;2022-09-13T10:02:00;11.02;;;8.45;;
35969;SDS011;22448;51.298;6.430;2022-09-13T10:04:56;11.25;;;6.70;;
35969;SDS011;22448;51.298;6.430;2022-09-13T10:07:27;10.90;;;7.13;;
35969;SDS011;22448;51.298;6.430;2022-09-13T10:10:05;19.50;;;7.40;;
35969;SDS011;22448;51.298;6.430;2022-09-13T10:12:48;11.02;;;5.95;;
35969;SDS011;22448;51.298;6.430;2022-09-13T10:15:19;11.05;;;7.03;;
35969;SDS011;22448;51.298;6.430;2022-09-13T10:18:01;13.48;;;7.68;;
35969;SDS011;22448;51.298;6.430;2022-09-13T10:21:09;10.32;;;6.25;;
35969;SDS011;22448;51.298;6.430;2022-09-13T10:23:50;12.43;;;6.20;;
35969;SDS011;22448;51.298;6.430;2022-09-13T10:26:20;13.35;;;6.18;;
35969;SDS011;22448;51.298;6.430;2022-09-13T10:28:52;7.50;;;5.40;;
35969;SDS011;22448;51.298;6.430;2022-09-13T10:31:38;11.13;;;6.00;;
35969;SDS011;22448;51.298;6.430;2022-09-13T10:39:23;9.85;;;3.80;;
35969;SDS011;22448;51.298;6.430;2022-09-13T10:41:52;5.95;;;2.72;;
35969;SDS011;22448;51.298;6.430;2022-09-13T10:47:00;7.23;;;3.50;;
35969;SDS011;22448;51.298;6.430;2022-09-13T10:49:35;5.82;;;3.75;;
35969;SDS011;22448;51.298;6.430;2022-09-13T10:54:49;8.07;;;3.13;;
35969;SDS011;22448;51.298;6.430;2022-09-13T10:57:32;17.30;;;3.47;;
35969;SDS011;22448;51.298;6.430;2022-09-13T11:00:04;9.82;;;3.40;;
35969;SDS011;22448;51.298;6.430;2022-09-13T11:02:41;7.10;;;3.33;;
35969;SDS011;22448;51.298;6.430;2022-09-13T11:08:13;6.40;;;3.25;;
35969;SDS011;22448;51.298;6.430;2022-09-13T11:11:06;6.95;;;3.75;;
35969;SDS011;22448;51.298;6.430;2022-09-13T11:16:52;10.30;;;4.10;;
35969;SDS011;22448;51.298;6.430;2022-09-13T11:19:51;10.13;;;4.57;;
35969;SDS011;22448;51.298;6.430;2022-09-13T11:22:39;10.55;;;5.15;;
35969;SDS011;22448;51.298;6.430;2022-09-13T11:28:01;9.48;;;5.85;;
35969;SDS011;22448;51.298;6.430;2022-09-13T11:36:19;7.35;;;4.82;;
35969;SDS011;22448;51.298;6.430;2022-09-13T11:39:02;12.75;;;6.10;;
35969;SDS011;22448;51.298;6.430;2022-09-13T11:47:49;10.32;;;5.38;;
35969;SDS011;22448;51.298;6.430;2022-09-13T11:50:35;9.18;;;5.15;;
35969;SDS011;22448;51.298;6.430;2022-09-13T11:56:20;9.80;;;5.35;;
35969;SDS011;22448;51.298;6.430;2022-09-13T11:58:52;11.68;;;5.22;;
35969;SDS011;22448;51.298;6.430;2022-09-13T12:01:27;15.90;;;4.93;;
35969;SDS011;22448;51.298;6.430;2022-09-13T12:04:21;9.70;;;5.38;;
35969;SDS011;22448;51.298;6.430;2022-09-13T12:06:58;8.38;;;4.90;;
35969;SDS011;22448;51.298;6.430;2022-09-13T12:09:29;11.77;;;5.13;;
35969;SDS011;22448;51.298;6.430;2022-09-13T12:12:05;9.57;;;6.70;;
35969;SDS011;22448;51.298;6.430;2022-09-13T12:14:46;10.63;;;5.50;;
35969;SDS011;22448;51.298;6.430;2022-09-13T12:20:04;9.68;;;5.97;;
35969;SDS011;22448;51.298;6.430;2022-09-13T12:22:39;10.98;;;7.20;;
35969;SDS011;22448;51.298;6.430;2022-09-13T12:25:15;11.35;;;6.72;;
35969;SDS011;22448;51.298;6.430;2022-09-13T12:27:48;9.23;;;6.32;;
35969;SDS011;22448;51.298;6.430;2022-09-13T12:30:21;7.57;;;5.15;;
35969;SDS011;22448;51.298;6.430;2022-09-13T12:32:51;11.70;;;6.00;;
35969;SDS011;22448;51.298;6.430;2022-09-13T12:35:28;12.63;;;7.07;;
35969;SDS011;22448;51.298;6.430;2022-09-13T12:49:09;9.27;;;5.20;;
35969;SDS011;22448;51.298;6.430;2022-09-13T13:04:02;9.10;;;5.10;;
35969;SDS011;22448;51.298;6.430;2022-09-13T13:09:38;9.43;;;4.88;;
35969;SDS011;22448;51.298;6.430;2022-09-13T13:12:37;8.15;;;5.05;;
35969;SDS011;22448;51.298;6.430;2022-09-13T13:15:52;9.35;;;6.03;;
35969;SDS011;22448;51.298;6.430;2022-09-13T13:17:53;9.20;;;4.50;;
35969;SDS011;22448;51.298;6.430;2022-09-13T13:20:40;9.88;;;4.05;;
35969;SDS011;22448;51.298;6.430;2022-09-13T13:23:18;9.45;;;4.80;;
35969;SDS011;22448;51.298;6.430;2022-09-13T13:25:59;13.27;;;7.00;;
35969;SDS011;22448;51.298;6.430;2022-09-13T13:31:33;15.20;;;8.15;;
35969;SDS011;22448;51.298;6.430;2022-09-13T13:39:08;7.45;;;4.95;;
35969;SDS011;22448;51.298;6.430;2022-09-13T13:59:50;17.55;;;6.72;;
35969;SDS011;22448;51.298;6.430;2022-09-13T14:05:27;16.50;;;8.88;;
35969;SDS011;22448;51.298;6.430;2022-09-13T14:10:52;16.20;;;9.48;;
35969;SDS011;22448;51.298;6.430;2022-09-13T14:22:10;17.55;;;7.43;;
35969;SDS011;22448;51.298;6.430;2022-09-13T14:27:22;12.38;;;7.10;;
35969;SDS011;22448;51.298;6.430;2022-09-13T14:29:55;19.73;;;8.25;;
35969;SDS011;22448;51.298;6.430;2022-09-13T14:32:26;16.83;;;6.97;;
35969;SDS011;22448;51.298;6.430;2022-09-13T14:35:05;20.10;;;11.50;;
35969;SDS011;22448;51.298;6.430;2022-09-13T14:37:35;15.43;;;8.85;;
35969;SDS011;22448;51.298;6.430;2022-09-13T14:40:20;15.68;;;9.00;;
35969;SDS011;22448;51.298;6.430;2022-09-13T14:42:54;18.60;;;9.68;;
35969;SDS011;22448;51.298;6.430;2022-09-13T14:45:29;22.02;;;11.93;;
35969;SDS011;22448;51.298;6.430;2022-09-13T14:48:09;16.67;;;9.95;;
35969;SDS011;22448;51.298;6.430;2022-09-13T14:50:46;13.10;;;9.90;;
35969;SDS011;22448;51.298;6.430;2022-09-13T14:55:56;16.73;;;10.70;;
35969;SDS011;22448;51.298;6.430;2022-09-13T14:58:30;17.23;;;8.98;;
35969;SDS011;22448;51.298;6.430;2022-09-13T15:01:06;13.82;;;9.60;;
35969;SDS011;22448;51.298;6.430;2022-09-13T15:03:41;14.35;;;8.88;;
35969;SDS011;22448;51.298;6.430;2022-09-13T15:06:20;16.67;;;9.73;;
35969;SDS011;22448;51.298;6.430;2022-09-13T15:08:49;15.30;;;9.45;;
35969;SDS011;22448;51.298;6.430;2022-09-13T15:11:40;17.35;;;9.93;;
35969;SDS011;22448;51.298;6.430;2022-09-13T15:14:22;15.18;;;9.98;;
35969;SDS011;22448;51.298;6.430;2022-09-13T15:17:12;20.42;;;10.48;;
35969;SDS011;22448;51.298;6.430;2022-09-13T15:22:21;14.68;;;9.85;;
35969;SDS011;22448;51.298;6.430;2022-09-13T15:24:55;19.27;;;8.13;;
35969;SDS011;22448;51.298;6.430;2022-09-13T15:29:59;17.95;;;10.40;;
35969;SDS011;22448;51.298;6.430;2022-09-13T15:35:16;14.15;;;9.35;;
35969;SDS011;22448;51.298;6.430;2022-09-13T15:37:56;14.93;;;8.45;;
35969;SDS011;22448;51.298;6.430;2022-09-13T15:40:27;17.92;;;8.32;;
35969;SDS011;22448;51.298;6.430;2022-09-13T15:42:55;15.27;;;8.38;;
35969;SDS011;22448;51.298;6.430;2022-09-13T15:45:23;10.85;;;7.82;;
35969;SDS011;22448;51.298;6.430;2022-09-13T15:47:50;11.32;;;7.10;;
35969;SDS011;22448;51.298;6.430;2022-09-13T15:50:19;16.20;;;8.05;;
35969;SDS011;22448;51.298;6.430;2022-09-13T15:52:53;10.35;;;7.22;;
35969;SDS011;22448;51.298;6.430;2022-09-13T15:55:20;13.13;;;7.35;;
35969;SDS011;22448;51.298;6.430;2022-09-13T15:57:48;13.70;;;6.93;;
35969;SDS011;22448;51.298;6.430;2022-09-13T16:00:20;14.80;;;7.82;;
35969;SDS011;22448;51.298;6.430;2022-09-13T16:02:49;14.52;;;10.13;;
35969;SDS011;22448;51.298;6.430;2022-09-13T16:05:16;13.38;;;8.55;;
35969;SDS011;22448;51.298;6.430;2022-09-13T16:07:44;13.35;;;9.40;;
35969;SDS011;22448;51.298;6.430;2022-09-13T16:10:18;24.98;;;13.07;;
35969;SDS011;22448;51.298;6.430;2022-09-13T16:12:47;21.65;;;13.52;;
35969;SDS011;22448;51.298;6.430;2022-09-13T16:15:14;24.55;;;9.45;;
35969;SDS011;22448;51.298;6.430;2022-09-13T16:17:42;18.48;;;8.98;;
35969;SDS011;22448;51.298;6.430;2022-09-13T16:20:10;16.75;;;10.05;;
35969;SDS011;22448;51.298;6.430;2022-09-13T16:22:39;11.63;;;8.15;;
35969;SDS011;22448;51.298;6.430;2022-09-13T16:25:06;14.07;;;8.40;;
35969;SDS011;22448;51.298;6.430;2022-09-13T16:27:35;15.30;;;9.23;;
35969;SDS011;22448;51.298;6.430;2022-09-13T16:30:02;12.57;;;8.43;;
35969;SDS011;22448;51.298;6.430;2022-09-13T16:32:30;16.20;;;10.20;;
35969;SDS011;22448;51.298;6.430;2022-09-13T16:34:57;15.43;;;9.70;;
35969;SDS011;22448;51.298;6.430;2022-09-13T16:37:24;17.75;;;9.73;;
35969;SDS011;22448;51.298;6.430;2022-09-13T16:39:54;19.80;;;12.38;;
35969;SDS011;22448;51.298;6.430;2022-09-13T16:42:22;16.60;;;10.20;;
35969;SDS011;22448;51.298;6.430;2022-09-13T16:44:50;22.02;;;12.30;;
35969;SDS011;22448;51.298;6.430;2022-09-13T16:47:17;14.73;;;10.15;;
35969;SDS011;22448;51.298;6.430;2022-09-13T16:49:44;19.50;;;11.68;;
35969;SDS011;22448;51.298;6.430;2022-09-13T16:52:11;19.65;;;12.00;;
35969;SDS011;22448;51.298;6.430;2022-09-13T16:54:38;18.08;;;11.02;;
35969;SDS011;22448;51.298;6.430;2022-09-13T16:57:06;14.93;;;11.40;;
35969;SDS011;22448;51.298;6.430;2022-09-13T16:59:35;25.20;;;12.10;;
35969;SDS011;22448;51.298;6.430;2022-09-13T17:02:02;16.42;;;10.63;;
35969;SDS011;22448;51.298;6.430;2022-09-13T17:04:29;18.63;;;11.98;;
35969;SDS011;22448;51.298;6.430;2022-09-13T17:06:56;20.25;;;11.63;;
35969;SDS011;22448;51.298;6.430;2022-09-13T17:09:23;23.38;;;12.85;;
35969;SDS011;22448;51.298;6.430;2022-09-13T17:11:53;17.73;;;11.23;;
35969;SDS011;22448;51.298;6.430;2022-09-13T17:14:19;19.38;;;11.93;;
35969;SDS011;22448;51.298;6.430;2022-09-13T17:16:48;18.73;;;11.75;;
35969;SDS011;22448;51.298;6.430;2022-09-13T17:21:48;18.40;;;11.82;;
35969;SDS011;22448;51.298;6.430;2022-09-13T17:24:17;21.52;;;10.55;;
35969;SDS011;22448;51.298;6.430;2022-09-13T17:26:44;22.67;;;11.85;;
35969;SDS011;22448;51.298;6.430;2022-09-13T17:29:12;19.70;;;10.85;;
35969;SDS011;22448;51.298;6.430;2022-09-13T17:31:40;24.33;;;11.95;;
35969;SDS011;22448;51.298;6.430;2022-09-13T17:34:09;18.17;;;11.23;;
35969;SDS011;22448;51.298;6.430;2022-09-13T17:36:37;20.92;;;10.45;;
35969;SDS011;22448;51.298;6.430;2022-09-13T17:39:05;26.90;;;11.32;;
35969;SDS011;22448;51.298;6.430;2022-09-13T17:41:32;17.90;;;11.52;;
35969;SDS011;22448;51.298;6.430;2022-09-13T17:43:59;23.75;;;11.57;;
35969;SDS011;22448;51.298;6.430;2022-09-13T17:46:27;19.45;;;11.23;;
35969;SDS011;22448;51.298;6.430;2022-09-13T17:48:56;16.48;;;10.52;;
35969;SDS011;22448;51.298;6.430;2022-09-13T17:51:26;20.13;;;11.30;;
35969;SDS011;22448;51.298;6.430;2022-09-13T17:53:55;21.17;;;11.25;;
35969;SDS011;22448;51.298;6.430;2022-09-13T17:56:25;15.93;;;10.70;;
35969;SDS011;22448;51.298;6.430;2022-09-13T17:58:56;18.63;;;10.90;;
35969;SDS011;22448;51.298;6.430;2022-09-13T18:01:35;18.08;;;10.70;;
35969;SDS011;22448;51.298;6.430;2022-09-13T18:04:04;19.58;;;11.65;;
35969;SDS011;22448;51.298;6.430;2022-09-13T18:06:32;18.92;;;12.35;;
35969;SDS011;22448;51.298;6.430;2022-09-13T18:09:00;20.08;;;12.13;;
35969;SDS011;22448;51.298;6.430;2022-09-13T18:11:27;24.63;;;15.43;;
35969;SDS011;22448;51.298;6.430;2022-09-13T18:13:54;29.00;;;16.67;;
35969;SDS011;22448;51.298;6.430;2022-09-13T18:16:23;37.83;;;16.48;;
35969;SDS011;22448;51.298;6.430;2022-09-13T18:18:52;25.38;;;14.75;;
35969;SDS011;22448;51.298;6.430;2022-09-13T18:21:19;18.73;;;14.45;;
35969;SDS011;22448;51.298;6.430;2022-09-13T18:23:49;22.83;;;15.02;;
35969;SDS011;22448;51.298;6.430;2022-09-13T18:26:20;27.08;;;15.85;;